Ionia, Michigan
Current Conditions -  °F | °C
As of 9:14 AM on Saturday 25 Oct 2014 (Local Time) from KY70 Reporting Station
Haze Haze  
Wind Chill: 56°   Ceiling: 800
Heat Index: 56°   Visibility: 4mi
Dew Point: 54°   Wind: 14mph
Humidity: 93%   Direction: 280°W
Pressure: 29.83"   Gusts: 22mph
Location:  42.99°N, 85.05°W
Report Text: KY70 251314Z AUTO 28012G19KT 4SM BR OVC008 13/12 A2983 RMK AO2 T01310120
Loading
Personal Weather Stations






























Interactive Weather Map
Tropical Storm Tracking
New forecast layout! Learn more

10-Day Weather Forecast

Advertisements
Track Severe Weather on mobile